createdAt,value
2023-05-22T00:01:28.810Z,9.40
2023-05-22T00:06:31.286Z,9.55
2023-05-22T00:11:34.767Z,10.23
2023-05-22T00:16:36.579Z,10.20
2023-05-22T00:21:38.944Z,10.07
2023-05-22T00:26:40.820Z,9.35
2023-05-22T00:31:42.544Z,9.65
2023-05-22T00:36:44.285Z,9.90
2023-05-22T00:41:46.409Z,9.88
2023-05-22T00:46:48.188Z,9.90
2023-05-22T00:51:50.163Z,9.63
2023-05-22T00:56:52.045Z,10.32
2023-05-22T01:01:55.812Z,9.95
2023-05-22T01:06:57.635Z,10.43
2023-05-22T01:12:09.857Z,9.68
2023-05-22T01:17:34.720Z,9.85
2023-05-22T01:22:58.560Z,9.73
2023-05-22T01:28:24.526Z,9.35
2023-05-22T01:33:28.783Z,10.25
2023-05-22T01:38:31.299Z,9.57
2023-05-22T01:43:33.125Z,9.23
2023-05-22T01:48:36.155Z,10.07
2023-05-22T01:54:03.259Z,9.43
2023-05-22T01:59:14.738Z,10.00
2023-05-22T02:04:22.611Z,9.50
2023-05-22T02:09:28.056Z,9.85
2023-05-22T02:14:30.231Z,10.05
2023-05-22T02:19:34.928Z,10.20
2023-05-22T02:24:37.032Z,9.82
2023-05-22T02:29:39.085Z,9.57
2023-05-22T02:34:40.812Z,9.82
2023-05-22T02:39:42.562Z,10.18
2023-05-22T02:44:44.269Z,10.10
2023-05-22T02:49:46.540Z,9.40
2023-05-22T02:54:48.270Z,9.70
2023-05-22T02:59:50.006Z,9.32
2023-05-22T03:04:51.909Z,9.10
2023-05-22T03:09:53.623Z,9.50
2023-05-22T03:14:55.478Z,9.73
2023-05-22T03:19:57.194Z,9.70
2023-05-22T03:24:59.191Z,9.32
2023-05-22T03:30:01.278Z,9.13
2023-05-22T03:35:03.870Z,8.98
2023-05-22T03:40:06.393Z,9.40
2023-05-22T03:45:08.556Z,8.80
2023-05-22T03:50:11.007Z,9.07
2023-05-22T03:55:12.824Z,8.68
2023-05-22T04:00:16.949Z,8.73
2023-05-22T04:05:18.722Z,8.93
2023-05-22T04:10:22.688Z,8.88
2023-05-22T04:15:24.471Z,8.90
2023-05-22T04:20:26.496Z,9.68
2023-05-22T04:25:28.270Z,8.80
2023-05-22T04:30:40.352Z,8.88
2023-05-22T04:35:42.384Z,8.43
2023-05-22T04:40:44.653Z,8.52
2023-05-22T04:45:46.389Z,9.07
2023-05-22T04:50:49.457Z,9.07
2023-05-22T04:55:51.215Z,8.40
2023-05-22T05:00:54.056Z,8.68
2023-05-22T05:05:56.760Z,8.75
2023-05-22T05:10:58.508Z,8.18
2023-05-22T05:16:00.580Z,8.20
2023-05-22T05:21:02.429Z,8.00
2023-05-22T05:26:04.255Z,8.20
2023-05-22T05:31:07.804Z,8.90
2023-05-22T05:36:10.081Z,8.52
2023-05-22T05:41:13.220Z,8.82
2023-05-22T05:46:15.089Z,8.48
2023-05-22T05:51:16.818Z,8.32
2023-05-22T05:56:18.589Z,8.13
2023-05-22T06:01:20.522Z,8.00
2023-05-22T06:06:25.962Z,7.82
2023-05-22T06:11:27.904Z,7.82
2023-05-22T06:16:30.056Z,8.00
2023-05-22T06:21:31.924Z,8.23
2023-05-22T06:26:33.722Z,8.13
2023-05-22T06:31:38.414Z,7.57
2023-05-22T06:36:40.656Z,7.88
2023-05-22T06:41:42.373Z,7.65
2023-05-22T06:46:44.245Z,7.50
2023-05-22T06:51:46.552Z,7.10
2023-05-22T06:56:48.367Z,7.53
2023-05-22T07:01:50.213Z,7.18
2023-05-22T07:06:52.407Z,7.25
2023-05-22T07:11:54.202Z,6.97
2023-05-22T07:16:56.362Z,7.07
2023-05-22T07:22:00.087Z,7.18
2023-05-22T07:27:02.088Z,6.82
2023-05-22T07:32:04.328Z,6.55
2023-05-22T07:37:12.954Z,6.75
2023-05-22T07:42:15.002Z,6.97
2023-05-22T07:47:16.997Z,7.40
2023-05-22T07:52:18.792Z,7.03
2023-05-22T07:57:20.533Z,6.43
2023-05-22T08:02:22.558Z,6.72
2023-05-22T08:07:24.427Z,7.03
2023-05-22T08:12:26.251Z,6.97
2023-05-22T08:17:28.107Z,6.18
2023-05-22T08:22:31.058Z,6.20
2023-05-22T08:27:32.862Z,6.40
2023-05-22T08:32:34.694Z,5.97
2023-05-22T08:37:37.193Z,5.68
2023-05-22T08:42:39.206Z,5.93
2023-05-22T08:47:44.256Z,5.68
2023-05-22T08:52:57.180Z,6.45
2023-05-22T08:58:00.628Z,6.88
2023-05-22T09:03:02.861Z,6.35
2023-05-22T09:08:15.975Z,5.95
2023-05-22T09:13:29.118Z,5.78
2023-05-22T09:18:31.819Z,5.45
2023-05-22T09:23:33.823Z,4.80
2023-05-22T09:28:36.903Z,5.05
2023-05-22T09:33:38.800Z,5.00
2023-05-22T09:38:41.211Z,4.50
2023-05-22T09:43:50.990Z,4.75
2023-05-22T09:48:53.553Z,4.57
2023-05-22T09:54:03.918Z,4.97
2023-05-22T09:59:09.251Z,5.38
2023-05-22T10:04:16.304Z,5.43
2023-05-22T10:09:21.396Z,4.70
2023-05-22T10:14:24.530Z,4.63
2023-05-22T10:19:28.932Z,4.93
2023-05-22T10:24:31.730Z,4.97
2023-05-22T10:29:55.438Z,4.95
2023-05-22T10:34:57.130Z,4.93
2023-05-22T10:40:05.455Z,5.10
2023-05-22T10:45:08.105Z,4.88
2023-05-22T10:50:13.054Z,4.50
2023-05-22T10:55:14.836Z,4.60
2023-05-22T11:00:18.726Z,4.75
2023-05-22T11:05:25.457Z,5.07
2023-05-22T11:10:47.788Z,4.72
2023-05-22T11:15:49.897Z,4.40
2023-05-22T11:20:54.782Z,4.68
2023-05-22T11:25:56.521Z,4.50
2023-05-22T11:31:00.202Z,3.75
2023-05-22T11:36:03.402Z,4.05
2023-05-22T11:41:05.134Z,4.28
2023-05-22T11:46:08.978Z,3.90
2023-05-22T11:51:10.947Z,4.28
2023-05-22T11:56:14.435Z,4.93
2023-05-22T12:01:16.270Z,4.38
2023-05-22T12:06:18.582Z,4.72
2023-05-22T12:11:21.619Z,4.20
2023-05-22T12:16:23.566Z,4.07
2023-05-22T12:21:29.432Z,4.30
2023-05-22T12:26:35.001Z,4.28
2023-05-22T12:31:38.462Z,4.45
2023-05-22T12:36:42.432Z,4.53
2023-05-22T12:41:45.774Z,6.25
2023-05-22T12:46:48.052Z,4.00
2023-05-22T12:51:49.973Z,4.30
2023-05-22T12:56:52.020Z,3.90
2023-05-22T13:01:54.515Z,3.75
2023-05-22T13:06:56.561Z,4.47
2023-05-22T13:11:58.442Z,3.70
2023-05-22T13:17:00.487Z,3.60
2023-05-22T13:22:02.426Z,4.75
2023-05-22T13:27:05.097Z,3.85
2023-05-22T13:32:06.935Z,3.90
2023-05-22T13:37:11.237Z,3.88
2023-05-22T13:42:15.331Z,4.05
2023-05-22T13:47:17.804Z,4.00
2023-05-22T13:52:19.715Z,3.78
2023-05-22T13:57:22.257Z,3.47
2023-05-22T14:02:24.206Z,3.33
2023-05-22T14:07:26.091Z,3.10
2023-05-22T14:12:27.966Z,3.33
2023-05-22T14:17:29.696Z,3.30
2023-05-22T14:22:36.121Z,3.05
2023-05-22T14:27:43.330Z,2.78
2023-05-22T14:32:47.160Z,2.53
2023-05-22T14:37:48.994Z,2.78
2023-05-22T14:42:53.297Z,2.85
2023-05-22T14:47:56.280Z,3.05
2023-05-22T14:52:58.177Z,2.90
2023-05-22T14:57:59.954Z,3.10
2023-05-22T15:03:02.876Z,2.90
2023-05-22T15:08:06.792Z,2.97
2023-05-22T15:13:08.533Z,2.90
2023-05-22T15:18:10.576Z,3.13
2023-05-22T15:23:13.153Z,2.80
2023-05-22T15:28:15.262Z,2.90
2023-05-22T15:33:17.149Z,2.67
2023-05-22T15:38:20.050Z,3.50
2023-05-22T15:43:22.713Z,2.80
2023-05-22T15:48:25.500Z,2.65
2023-05-22T15:53:27.282Z,3.00
2023-05-22T15:58:30.168Z,3.13
2023-05-22T16:03:32.079Z,2.85
2023-05-22T16:08:34.592Z,2.72
2023-05-22T16:13:36.312Z,2.85
2023-05-22T16:18:38.039Z,2.90
2023-05-22T16:23:39.831Z,3.10
2023-05-22T16:28:41.716Z,3.17
2023-05-22T16:33:43.460Z,3.00
2023-05-22T16:38:52.806Z,3.00
2023-05-22T16:43:54.730Z,3.25
2023-05-22T16:48:56.460Z,2.85
2023-05-22T16:54:04.662Z,3.22
2023-05-22T16:59:06.807Z,3.63
2023-05-22T17:04:08.763Z,3.50
2023-05-22T17:09:10.591Z,2.85
2023-05-22T17:14:12.786Z,2.75
2023-05-22T17:19:14.935Z,3.08
2023-05-22T17:24:16.690Z,3.38
2023-05-22T17:29:18.450Z,3.53
2023-05-22T17:34:20.166Z,3.35
2023-05-22T17:39:21.913Z,3.30
2023-05-22T17:44:23.733Z,3.20
2023-05-22T17:49:25.574Z,3.30
2023-05-22T17:54:34.186Z,2.95
2023-05-22T17:59:37.360Z,3.38
2023-05-22T18:04:40.994Z,3.15
2023-05-22T18:09:42.747Z,3.20
2023-05-22T18:14:44.520Z,3.15
2023-05-22T18:19:46.282Z,3.17
2023-05-22T18:24:47.986Z,3.60
2023-05-22T18:29:51.621Z,4.32
2023-05-22T18:34:53.472Z,4.10
2023-05-22T18:39:55.485Z,3.95
2023-05-22T18:44:58.549Z,4.18
2023-05-22T18:50:00.459Z,3.47
2023-05-22T18:55:02.181Z,3.80
2023-05-22T19:00:04.339Z,3.80
2023-05-22T19:05:07.007Z,4.10
2023-05-22T19:10:09.258Z,4.00
2023-05-22T19:15:11.390Z,3.47
2023-05-22T19:20:13.217Z,3.88
2023-05-22T19:25:15.068Z,3.90
2023-05-22T19:30:18.729Z,3.88
2023-05-22T19:35:20.723Z,4.30
2023-05-22T19:40:22.522Z,3.75
2023-05-22T19:45:26.086Z,3.70
2023-05-22T19:50:27.893Z,3.75
2023-05-22T19:55:30.513Z,3.47
2023-05-22T20:00:33.409Z,4.15
2023-05-22T20:05:35.451Z,3.83
2023-05-22T20:10:39.591Z,3.40
2023-05-22T20:15:41.775Z,3.90
2023-05-22T20:20:43.905Z,3.90
2023-05-22T20:25:45.858Z,3.47
2023-05-22T20:30:47.874Z,3.55
2023-05-22T20:35:53.030Z,3.45
2023-05-22T20:40:55.366Z,4.22
2023-05-22T20:45:57.679Z,6.00
2023-05-22T20:50:59.724Z,3.67
2023-05-22T20:56:01.957Z,4.05
2023-05-22T21:01:04.312Z,3.83
2023-05-22T21:06:06.477Z,4.15
2023-05-22T21:11:08.709Z,4.53
2023-05-22T21:16:10.668Z,4.25
2023-05-22T21:21:15.729Z,4.55
2023-05-22T21:26:18.091Z,4.35
2023-05-22T21:31:20.116Z,4.43
2023-05-22T21:36:22.103Z,4.22
2023-05-22T21:41:24.158Z,4.00
2023-05-22T21:46:26.669Z,4.15
2023-05-22T21:51:36.615Z,4.10
2023-05-22T21:56:38.736Z,4.13
2023-05-22T22:01:40.957Z,4.30
2023-05-22T22:06:42.761Z,4.45
2023-05-22T22:11:44.526Z,4.60
2023-05-22T22:16:46.935Z,4.07
2023-05-22T22:21:49.541Z,4.25
2023-05-22T22:26:51.558Z,4.63
2023-05-22T22:31:53.378Z,5.00
2023-05-22T22:36:55.097Z,4.80
2023-05-22T22:42:03.914Z,4.78
2023-05-22T22:47:07.344Z,4.80
2023-05-22T22:52:09.095Z,5.20
2023-05-22T22:57:10.981Z,5.00
2023-05-22T23:02:12.719Z,4.93
2023-05-22T23:07:14.429Z,5.18
2023-05-22T23:12:16.298Z,4.78
2023-05-22T23:17:18.013Z,4.90
2023-05-22T23:22:19.760Z,4.72
2023-05-22T23:27:21.887Z,5.15
2023-05-22T23:32:23.724Z,4.35
2023-05-22T23:37:25.552Z,4.20
2023-05-22T23:42:27.375Z,4.47
2023-05-22T23:47:29.124Z,4.75
2023-05-22T23:52:30.848Z,4.68
2023-05-22T23:57:32.607Z,4.50
